Reese River, Nevada
Current Conditions -  °F | °C
As of 8:00 AM on Friday 28 Nov 2014 (Local Time) from K05U Reporting Station
Clear Clear  
Wind Chill: 26°   Ceiling: Unl
Heat Index: 32°   Visibility: 10mi
Dew Point: 18°   Wind: 7mph
Humidity: 55%   Direction: 220°SW
Pressure: 30.12"   Gusts: NA
Location:  39.7407°N, 117.085°W
Report Text: K05U 281600Z AUTO 22006KT 10SM CLR 00/M08 A3012 RMK AO1
Loading
Personal Weather Stations






























Interactive Weather Map New forecast layout! Learn more

10-Day Weather Forecast

Advertisements
Track Severe Weather on mobile